sensor_id;sensor_type;location;lat;lon;timestamp;pressure;altitude;pressure_sealevel;temperature;humidity
55604;BME280;41468;48.838;9.330;2023-05-03T00:01:45;99131.94;;;10.99;84.76
55604;BME280;41468;48.838;9.330;2023-05-03T00:04:15;99128.75;;;10.97;84.41
55604;BME280;41468;48.838;9.330;2023-05-03T00:06:43;99130.66;;;10.81;84.91
55604;BME280;41468;48.838;9.330;2023-05-03T00:09:10;99128.94;;;10.60;86.24
55604;BME280;41468;48.838;9.330;2023-05-03T00:11:36;99134.88;;;10.50;87.42
55604;BME280;41468;48.838;9.330;2023-05-03T00:14:03;99132.72;;;10.56;87.80
55604;BME280;41468;48.838;9.330;2023-05-03T00:16:30;99135.53;;;10.59;87.11
55604;BME280;41468;48.838;9.330;2023-05-03T00:18:57;99141.72;;;10.56;87.77
55604;BME280;41468;48.838;9.330;2023-05-03T00:21:24;99135.56;;;10.47;87.98
55604;BME280;41468;48.838;9.330;2023-05-03T00:24:03;99136.03;;;10.49;88.03
55604;BME280;41468;48.838;9.330;2023-05-03T00:26:30;99137.13;;;10.60;87.46
55604;BME280;41468;48.838;9.330;2023-05-03T00:28:58;99132.06;;;10.75;86.61
55604;BME280;41468;48.838;9.330;2023-05-03T00:31:26;99138.03;;;10.65;87.09
55604;BME280;41468;48.838;9.330;2023-05-03T00:33:53;99131.78;;;10.64;86.97
55604;BME280;41468;48.838;9.330;2023-05-03T00:36:19;99139.16;;;10.64;87.36
55604;BME280;41468;48.838;9.330;2023-05-03T00:38:46;99131.78;;;10.64;86.67
55604;BME280;41468;48.838;9.330;2023-05-03T00:41:13;99139.75;;;10.57;87.07
55604;BME280;41468;48.838;9.330;2023-05-03T00:43:39;99133.16;;;10.58;87.34
55604;BME280;41468;48.838;9.330;2023-05-03T00:46:08;99131.72;;;10.48;87.27
55604;BME280;41468;48.838;9.330;2023-05-03T00:48:40;99130.94;;;10.48;87.25
55604;BME280;41468;48.838;9.330;2023-05-03T00:51:07;99127.75;;;10.46;87.91
55604;BME280;41468;48.838;9.330;2023-05-03T00:53:34;99123.78;;;10.43;87.45
55604;BME280;41468;48.838;9.330;2023-05-03T00:56:02;99129.00;;;10.48;87.49
55604;BME280;41468;48.838;9.330;2023-05-03T00:58:31;99122.84;;;10.51;87.29
55604;BME280;41468;48.838;9.330;2023-05-03T01:00:59;99114.19;;;10.49;87.16
55604;BME280;41468;48.838;9.330;2023-05-03T01:03:26;99118.75;;;10.45;87.12
55604;BME280;41468;48.838;9.330;2023-05-03T01:06:07;99121.41;;;10.70;86.06
55604;BME280;41468;48.838;9.330;2023-05-03T01:08:42;99116.75;;;10.58;86.30
55604;BME280;41468;48.838;9.330;2023-05-03T01:11:16;99119.44;;;10.70;86.11
55604;BME280;41468;48.838;9.330;2023-05-03T01:14:07;99116.75;;;10.58;86.13
55604;BME280;41468;48.838;9.330;2023-05-03T01:16:39;99128.47;;;10.58;86.22
55604;BME280;41468;48.838;9.330;2023-05-03T01:19:18;99124.84;;;10.67;85.45
55604;BME280;41468;48.838;9.330;2023-05-03T01:21:52;99120.66;;;10.57;85.80
55604;BME280;41468;48.838;9.330;2023-05-03T01:24:27;99110.75;;;10.52;86.65
55604;BME280;41468;48.838;9.330;2023-05-03T01:26:56;99109.56;;;10.37;87.81
55604;BME280;41468;48.838;9.330;2023-05-03T01:29:24;99109.66;;;10.41;86.94
55604;BME280;41468;48.838;9.330;2023-05-03T01:31:56;99099.59;;;10.29;87.89
55604;BME280;41468;48.838;9.330;2023-05-03T01:34:54;99092.56;;;10.04;89.23
55604;BME280;41468;48.838;9.330;2023-05-03T01:37:24;99100.19;;;9.98;89.41
55604;BME280;41468;48.838;9.330;2023-05-03T01:39:55;99096.69;;;9.85;90.50
55604;BME280;41468;48.838;9.330;2023-05-03T01:42:31;99095.44;;;9.95;90.13
55604;BME280;41468;48.838;9.330;2023-05-03T01:44:59;99095.97;;;10.13;89.02
55604;BME280;41468;48.838;9.330;2023-05-03T01:47:28;99095.75;;;10.06;89.38
55604;BME280;41468;48.838;9.330;2023-05-03T01:49:56;99095.72;;;10.18;89.08
55604;BME280;41468;48.838;9.330;2023-05-03T01:52:22;99098.44;;;10.18;88.97
55604;BME280;41468;48.838;9.330;2023-05-03T01:54:49;99092.00;;;10.10;89.47
55604;BME280;41468;48.838;9.330;2023-05-03T01:57:16;99090.84;;;10.11;89.53
55604;BME280;41468;48.838;9.330;2023-05-03T01:59:43;99097.47;;;9.86;91.11
55604;BME280;41468;48.838;9.330;2023-05-03T02:02:09;99090.03;;;9.70;91.71
55604;BME280;41468;48.838;9.330;2023-05-03T02:04:36;99093.44;;;9.67;91.63
55604;BME280;41468;48.838;9.330;2023-05-03T02:07:03;99089.66;;;9.84;91.27
55604;BME280;41468;48.838;9.330;2023-05-03T02:09:30;99095.00;;;9.81;91.08
55604;BME280;41468;48.838;9.330;2023-05-03T02:11:56;99095.34;;;9.91;90.12
55604;BME280;41468;48.838;9.330;2023-05-03T02:14:23;99092.94;;;10.02;89.12
55604;BME280;41468;48.838;9.330;2023-05-03T02:16:50;99095.47;;;9.70;91.09
55604;BME280;41468;48.838;9.330;2023-05-03T02:19:17;99099.22;;;9.54;92.39
55604;BME280;41468;48.838;9.330;2023-05-03T02:21:43;99101.13;;;9.90;90.04
55604;BME280;41468;48.838;9.330;2023-05-03T02:24:11;99101.63;;;10.20;88.54
55604;BME280;41468;48.838;9.330;2023-05-03T02:26:37;99094.28;;;10.08;89.09
55604;BME280;41468;48.838;9.330;2023-05-03T02:29:04;99101.22;;;10.06;89.22
55604;BME280;41468;48.838;9.330;2023-05-03T02:31:32;99095.69;;;9.78;90.32
55604;BME280;41468;48.838;9.330;2023-05-03T02:33:59;99097.97;;;9.76;89.93
55604;BME280;41468;48.838;9.330;2023-05-03T02:36:26;99094.91;;;9.65;91.23
55604;BME280;41468;48.838;9.330;2023-05-03T02:38:53;99099.88;;;9.75;89.64
55604;BME280;41468;48.838;9.330;2023-05-03T02:41:20;99097.63;;;9.77;89.90
55604;BME280;41468;48.838;9.330;2023-05-03T02:43:46;99095.25;;;9.63;90.52
55604;BME280;41468;48.838;9.330;2023-05-03T02:46:13;99089.22;;;9.45;92.53
55604;BME280;41468;48.838;9.330;2023-05-03T02:48:40;99085.13;;;9.39;93.58
55604;BME280;41468;48.838;9.330;2023-05-03T02:51:06;99086.75;;;9.40;93.51
55604;BME280;41468;48.838;9.330;2023-05-03T02:53:33;99088.88;;;9.35;92.75
55604;BME280;41468;48.838;9.330;2023-05-03T02:56:05;99085.94;;;9.40;92.24
55604;BME280;41468;48.838;9.330;2023-05-03T02:58:31;99082.41;;;9.15;92.64
55604;BME280;41468;48.838;9.330;2023-05-03T03:00:58;99084.34;;;9.26;91.59
55604;BME280;41468;48.838;9.330;2023-05-03T03:03:25;99082.97;;;9.20;91.51
55604;BME280;41468;48.838;9.330;2023-05-03T03:05:52;99091.69;;;9.01;92.66
55604;BME280;41468;48.838;9.330;2023-05-03T03:08:19;99093.50;;;8.97;93.74
55604;BME280;41468;48.838;9.330;2023-05-03T03:10:45;99087.75;;;9.23;92.03
55604;BME280;41468;48.838;9.330;2023-05-03T03:13:12;99086.81;;;9.07;91.75
55604;BME280;41468;48.838;9.330;2023-05-03T03:15:39;99092.25;;;9.07;92.08
55604;BME280;41468;48.838;9.330;2023-05-03T03:18:05;99089.34;;;9.24;91.13
55604;BME280;41468;48.838;9.330;2023-05-03T03:20:32;99087.19;;;9.30;89.85
55604;BME280;41468;48.838;9.330;2023-05-03T03:23:04;99088.22;;;9.38;89.26
55604;BME280;41468;48.838;9.330;2023-05-03T03:25:30;99086.38;;;9.42;89.42
55604;BME280;41468;48.838;9.330;2023-05-03T03:27:57;99085.94;;;9.40;89.80
55604;BME280;41468;48.838;9.330;2023-05-03T03:30:24;99088.44;;;9.08;91.26
55604;BME280;41468;48.838;9.330;2023-05-03T03:32:51;99091.00;;;8.92;92.01
55604;BME280;41468;48.838;9.330;2023-05-03T03:35:18;99099.44;;;8.78;93.31
55604;BME280;41468;48.838;9.330;2023-05-03T03:37:45;99090.50;;;8.78;92.81
55604;BME280;41468;48.838;9.330;2023-05-03T03:40:12;99099.59;;;8.49;93.67
55604;BME280;41468;48.838;9.330;2023-05-03T03:42:39;99093.13;;;8.32;94.03
55604;BME280;41468;48.838;9.330;2023-05-03T03:45:06;99105.50;;;8.51;92.94
55604;BME280;41468;48.838;9.330;2023-05-03T03:47:33;99104.97;;;8.36;93.42
55604;BME280;41468;48.838;9.330;2023-05-03T03:50:00;99102.06;;;8.42;93.16
55604;BME280;41468;48.838;9.330;2023-05-03T03:52:27;99102.56;;;8.56;92.51
55604;BME280;41468;48.838;9.330;2023-05-03T03:54:55;99108.75;;;8.65;92.23
55604;BME280;41468;48.838;9.330;2023-05-03T03:57:21;99112.25;;;8.66;92.75
55604;BME280;41468;48.838;9.330;2023-05-03T03:59:50;99112.31;;;8.57;93.91
55604;BME280;41468;48.838;9.330;2023-05-03T04:02:17;99121.47;;;8.31;94.42
55604;BME280;41468;48.838;9.330;2023-05-03T04:04:43;99110.47;;;8.49;93.79
55604;BME280;41468;48.838;9.330;2023-05-03T04:07:10;99115.47;;;8.47;94.15
55604;BME280;41468;48.838;9.330;2023-05-03T04:09:37;99114.09;;;8.74;93.52
55604;BME280;41468;48.838;9.330;2023-05-03T04:12:04;99115.94;;;8.82;92.77
55604;BME280;41468;48.838;9.330;2023-05-03T04:14:31;99112.94;;;8.75;92.91
55604;BME280;41468;48.838;9.330;2023-05-03T04:16:57;99115.38;;;8.89;92.96
55604;BME280;41468;48.838;9.330;2023-05-03T04:19:24;99120.81;;;8.89;91.73
55604;BME280;41468;48.838;9.330;2023-05-03T04:21:51;99131.28;;;8.99;91.67
55604;BME280;41468;48.838;9.330;2023-05-03T04:24:18;99132.22;;;9.03;91.22
55604;BME280;41468;48.838;9.330;2023-05-03T04:26:45;99129.81;;;9.01;91.21
55604;BME280;41468;48.838;9.330;2023-05-03T04:29:12;99133.94;;;8.74;93.13
55604;BME280;41468;48.838;9.330;2023-05-03T04:31:38;99135.22;;;8.77;93.29
55604;BME280;41468;48.838;9.330;2023-05-03T04:34:05;99143.69;;;8.75;93.19
55604;BME280;41468;48.838;9.330;2023-05-03T04:36:33;99140.97;;;8.75;93.64
55604;BME280;41468;48.838;9.330;2023-05-03T04:38:59;99141.41;;;8.65;95.06
55604;BME280;41468;48.838;9.330;2023-05-03T04:41:26;99139.59;;;8.69;95.13
55604;BME280;41468;48.838;9.330;2023-05-03T04:43:53;99147.16;;;8.84;94.16
55604;BME280;41468;48.838;9.330;2023-05-03T04:46:20;99144.03;;;9.07;92.78
55604;BME280;41468;48.838;9.330;2023-05-03T04:48:47;99149.94;;;9.21;91.26
55604;BME280;41468;48.838;9.330;2023-05-03T04:51:13;99150.72;;;9.10;91.93
55604;BME280;41468;48.838;9.330;2023-05-03T04:53:40;99151.88;;;9.21;92.22
55604;BME280;41468;48.838;9.330;2023-05-03T04:56:07;99152.97;;;8.95;92.68
55604;BME280;41468;48.838;9.330;2023-05-03T04:58:33;99160.69;;;8.93;93.71
55604;BME280;41468;48.838;9.330;2023-05-03T05:01:02;99151.19;;;9.12;92.41
55604;BME280;41468;48.838;9.330;2023-05-03T05:03:29;99154.50;;;9.17;92.48
55604;BME280;41468;48.838;9.330;2023-05-03T05:05:57;99161.75;;;9.13;93.03
55604;BME280;41468;48.838;9.330;2023-05-03T05:08:34;99159.84;;;9.14;93.34
55604;BME280;41468;48.838;9.330;2023-05-03T05:11:01;99161.09;;;9.28;92.88
55604;BME280;41468;48.838;9.330;2023-05-03T05:13:31;99163.16;;;9.32;92.25
55604;BME280;41468;48.838;9.330;2023-05-03T05:15:58;99157.69;;;9.19;92.98
55604;BME280;41468;48.838;9.330;2023-05-03T05:18:24;99162.78;;;9.09;93.87
55604;BME280;41468;48.838;9.330;2023-05-03T05:21:02;99160.31;;;9.28;92.93
55604;BME280;41468;48.838;9.330;2023-05-03T05:23:29;99155.41;;;9.21;93.32
55604;BME280;41468;48.838;9.330;2023-05-03T05:25:56;99155.44;;;9.34;93.61
55604;BME280;41468;48.838;9.330;2023-05-03T05:28:26;99165.69;;;9.73;91.88
55604;BME280;41468;48.838;9.330;2023-05-03T05:30:53;99161.69;;;9.95;90.20
55604;BME280;41468;48.838;9.330;2023-05-03T05:33:20;99166.00;;;10.09;89.41
55604;BME280;41468;48.838;9.330;2023-05-03T05:35:47;99167.50;;;10.18;88.56
55604;BME280;41468;48.838;9.330;2023-05-03T05:38:15;99167.25;;;10.24;88.20
55604;BME280;41468;48.838;9.330;2023-05-03T05:40:43;99167.00;;;10.41;88.05
55604;BME280;41468;48.838;9.330;2023-05-03T05:43:09;99167.41;;;10.55;87.61
55604;BME280;41468;48.838;9.330;2023-05-03T05:45:37;99164.16;;;10.78;86.24
55604;BME280;41468;48.838;9.330;2023-05-03T05:48:04;99167.06;;;10.57;86.60
55604;BME280;41468;48.838;9.330;2023-05-03T05:50:31;99163.94;;;10.43;87.03
55604;BME280;41468;48.838;9.330;2023-05-03T05:53:03;99172.03;;;10.27;87.45
55604;BME280;41468;48.838;9.330;2023-05-03T05:55:30;99164.41;;;10.32;87.88
55604;BME280;41468;48.838;9.330;2023-05-03T05:57:56;99173.00;;;10.47;87.52
55604;BME280;41468;48.838;9.330;2023-05-03T06:00:23;99166.59;;;10.67;85.85
55604;BME280;41468;48.838;9.330;2023-05-03T06:02:50;99168.25;;;11.00;84.51
55604;BME280;41468;48.838;9.330;2023-05-03T06:05:22;99169.16;;;11.20;83.27
55604;BME280;41468;48.838;9.330;2023-05-03T06:07:49;99167.41;;;11.12;84.26
55604;BME280;41468;48.838;9.330;2023-05-03T06:10:15;99169.56;;;11.34;83.29
55604;BME280;41468;48.838;9.330;2023-05-03T06:12:42;99172.63;;;11.33;83.64
55604;BME280;41468;48.838;9.330;2023-05-03T06:15:09;99165.59;;;11.32;82.16
55604;BME280;41468;48.838;9.330;2023-05-03T06:17:36;99164.06;;;11.66;80.38
55604;BME280;41468;48.838;9.330;2023-05-03T06:20:03;99164.63;;;11.71;80.19
55604;BME280;41468;48.838;9.330;2023-05-03T06:22:31;99157.09;;;11.84;79.79
55604;BME280;41468;48.838;9.330;2023-05-03T06:24:58;99163.72;;;11.52;81.16
55604;BME280;41468;48.838;9.330;2023-05-03T06:27:24;99164.88;;;11.82;80.96
55604;BME280;41468;48.838;9.330;2023-05-03T06:29:51;99164.78;;;11.79;80.09
55604;BME280;41468;48.838;9.330;2023-05-03T06:32:18;99164.06;;;11.82;79.83
55604;BME280;41468;48.838;9.330;2023-05-03T06:34:45;99172.56;;;11.92;78.79
55604;BME280;41468;48.838;9.330;2023-05-03T06:37:11;99164.31;;;12.08;78.53
55604;BME280;41468;48.838;9.330;2023-05-03T06:39:39;99164.06;;;11.98;78.65
55604;BME280;41468;48.838;9.330;2023-05-03T06:42:06;99162.19;;;12.18;79.34
55604;BME280;41468;48.838;9.330;2023-05-03T06:44:33;99162.16;;;12.33;77.97
55604;BME280;41468;48.838;9.330;2023-05-03T06:47:00;99162.44;;;12.48;77.49
55604;BME280;41468;48.838;9.330;2023-05-03T06:49:26;99162.56;;;12.35;79.16
55604;BME280;41468;48.838;9.330;2023-05-03T06:51:53;99158.81;;;12.24;77.65
55604;BME280;41468;48.838;9.330;2023-05-03T06:54:20;99159.41;;;12.72;76.18
55604;BME280;41468;48.838;9.330;2023-05-03T06:56:47;99163.22;;;13.07;74.73
55604;BME280;41468;48.838;9.330;2023-05-03T06:59:15;99155.81;;;12.88;76.71
55604;BME280;41468;48.838;9.330;2023-05-03T07:01:42;99157.59;;;12.99;77.18
55604;BME280;41468;48.838;9.330;2023-05-03T07:04:09;99160.47;;;13.07;76.95
55604;BME280;41468;48.838;9.330;2023-05-03T07:06:35;99159.50;;;13.18;76.57
55604;BME280;41468;48.838;9.330;2023-05-03T07:09:20;99151.50;;;13.52;74.88
55604;BME280;41468;48.838;9.330;2023-05-03T07:12:00;99145.53;;;13.46;73.40
55604;BME280;41468;48.838;9.330;2023-05-03T07:14:27;99152.13;;;13.65;72.84
55604;BME280;41468;48.838;9.330;2023-05-03T07:16:54;99146.69;;;13.95;71.98
55604;BME280;41468;48.838;9.330;2023-05-03T07:19:21;99143.19;;;13.98;72.28
55604;BME280;41468;48.838;9.330;2023-05-03T07:21:48;99145.25;;;14.05;70.52
55604;BME280;41468;48.838;9.330;2023-05-03T07:24:19;99132.06;;;13.87;71.95
55604;BME280;41468;48.838;9.330;2023-05-03T07:26:46;99131.28;;;14.13;70.43
55604;BME280;41468;48.838;9.330;2023-05-03T07:29:14;99127.31;;;14.41;68.04
55604;BME280;41468;48.838;9.330;2023-05-03T07:31:41;99125.03;;;14.17;71.20
55604;BME280;41468;48.838;9.330;2023-05-03T07:34:10;99127.94;;;14.31;70.63
55604;BME280;41468;48.838;9.330;2023-05-03T07:36:38;99127.25;;;14.64;70.76
55604;BME280;41468;48.838;9.330;2023-05-03T07:39:05;99132.63;;;14.91;68.37
55604;BME280;41468;48.838;9.330;2023-05-03T07:41:32;99133.16;;;15.03;69.72
55604;BME280;41468;48.838;9.330;2023-05-03T07:43:59;99129.31;;;15.12;69.75
55604;BME280;41468;48.838;9.330;2023-05-03T07:46:26;99130.16;;;15.19;67.55
55604;BME280;41468;48.838;9.330;2023-05-03T07:48:53;99126.28;;;15.24;68.13
55604;BME280;41468;48.838;9.330;2023-05-03T07:51:20;99126.59;;;15.60;67.26
55604;BME280;41468;48.838;9.330;2023-05-03T07:53:46;99125.97;;;15.77;66.70
55604;BME280;41468;48.838;9.330;2023-05-03T07:56:13;99126.22;;;15.61;67.46
55604;BME280;41468;48.838;9.330;2023-05-03T07:58:40;99126.59;;;15.60;65.80
55604;BME280;41468;48.838;9.330;2023-05-03T08:01:09;99128.59;;;15.18;66.60
55604;BME280;41468;48.838;9.330;2023-05-03T08:03:35;99125.44;;;15.64;65.50
55604;BME280;41468;48.838;9.330;2023-05-03T08:06:03;99114.28;;;15.95;64.28
55604;BME280;41468;48.838;9.330;2023-05-03T08:08:40;99113.56;;;16.05;65.01
55604;BME280;41468;48.838;9.330;2023-05-03T08:11:08;99116.78;;;16.18;63.77
55604;BME280;41468;48.838;9.330;2023-05-03T08:13:35;99117.59;;;16.25;63.79
55604;BME280;41468;48.838;9.330;2023-05-03T08:16:03;99112.56;;;16.42;62.80
55604;BME280;41468;48.838;9.330;2023-05-03T08:18:30;99113.88;;;16.76;60.80
55604;BME280;41468;48.838;9.330;2023-05-03T08:20:57;99109.81;;;16.42;60.69
55604;BME280;41468;48.838;9.330;2023-05-03T08:23:24;99111.13;;;16.76;62.77
55604;BME280;41468;48.838;9.330;2023-05-03T08:25:51;99109.44;;;16.54;63.72
55604;BME280;41468;48.838;9.330;2023-05-03T08:28:17;99110.75;;;16.78;64.13
55604;BME280;41468;48.838;9.330;2023-05-03T08:30:44;99109.59;;;16.86;63.63
55604;BME280;41468;48.838;9.330;2023-05-03T08:33:11;99107.06;;;16.49;64.77
55604;BME280;41468;48.838;9.330;2023-05-03T08:35:38;99117.31;;;16.48;63.91
55604;BME280;41468;48.838;9.330;2023-05-03T08:38:05;99111.69;;;16.30;65.28
55604;BME280;41468;48.838;9.330;2023-05-03T08:40:31;99112.22;;;16.54;64.74
55604;BME280;41468;48.838;9.330;2023-05-03T08:43:07;99108.63;;;16.39;63.95
55604;BME280;41468;48.838;9.330;2023-05-03T08:45:35;99116.72;;;16.10;64.80
55604;BME280;41468;48.838;9.330;2023-05-03T08:48:02;99114.31;;;16.02;66.42
55604;BME280;41468;48.838;9.330;2023-05-03T08:50:30;99116.25;;;15.94;68.45
55604;BME280;41468;48.838;9.330;2023-05-03T08:52:58;99117.38;;;15.89;68.58
55604;BME280;41468;48.838;9.330;2023-05-03T08:55:25;99120.56;;;15.92;67.90
55604;BME280;41468;48.838;9.330;2023-05-03T08:57:52;99122.03;;;15.82;67.64
55604;BME280;41468;48.838;9.330;2023-05-03T09:00:26;99125.59;;;15.82;67.15
55604;BME280;41468;48.838;9.330;2023-05-03T09:02:53;99116.63;;;15.93;64.76
55604;BME280;41468;48.838;9.330;2023-05-03T09:08:07;99123.16;;;16.36;65.01
55604;BME280;41468;48.838;9.330;2023-05-03T09:10:41;99126.44;;;16.63;62.99
55604;BME280;41468;48.838;9.330;2023-05-03T09:13:08;99131.69;;;17.11;61.81
55604;BME280;41468;48.838;9.330;2023-05-03T09:15:36;99126.97;;;17.01;61.01
55604;BME280;41468;48.838;9.330;2023-05-03T09:18:16;99120.25;;;17.02;63.17
55604;BME280;41468;48.838;9.330;2023-05-03T09:20:45;99125.72;;;16.81;60.01
55604;BME280;41468;48.838;9.330;2023-05-03T09:23:27;99127.13;;;16.42;61.78
55604;BME280;41468;48.838;9.330;2023-05-03T09:25:54;99126.47;;;16.74;62.25
55604;BME280;41468;48.838;9.330;2023-05-03T09:28:21;99127.81;;;16.25;61.80
55604;BME280;41468;48.838;9.330;2023-05-03T09:30:48;99125.34;;;16.05;64.09
55604;BME280;41468;48.838;9.330;2023-05-03T09:33:16;99121.09;;;16.15;62.69
55604;BME280;41468;48.838;9.330;2023-05-03T09:35:59;99114.78;;;16.15;62.19
55604;BME280;41468;48.838;9.330;2023-05-03T09:38:30;99108.66;;;16.57;61.04
55604;BME280;41468;48.838;9.330;2023-05-03T09:40:58;99119.00;;;16.82;60.47
55604;BME280;41468;48.838;9.330;2023-05-03T09:43:27;99111.16;;;16.84;58.48
55604;BME280;41468;48.838;9.330;2023-05-03T09:46:10;99109.19;;;16.91;59.43
55604;BME280;41468;48.838;9.330;2023-05-03T09:48:38;99110.44;;;17.15;59.28
55604;BME280;41468;48.838;9.330;2023-05-03T09:51:06;99111.56;;;16.82;61.69
55604;BME280;41468;48.838;9.330;2023-05-03T09:53:34;99116.22;;;16.74;61.19
55604;BME280;41468;48.838;9.330;2023-05-03T09:56:03;99108.38;;;16.84;60.91
55604;BME280;41468;48.838;9.330;2023-05-03T09:58:31;99114.72;;;16.88;60.62
55604;BME280;41468;48.838;9.330;2023-05-03T10:01:01;99113.13;;;16.80;61.57
55604;BME280;41468;48.838;9.330;2023-05-03T10:03:38;99113.47;;;16.74;60.86
55604;BME280;41468;48.838;9.330;2023-05-03T10:06:06;99107.88;;;16.60;60.85
55604;BME280;41468;48.838;9.330;2023-05-03T10:08:40;99101.34;;;16.93;61.88
55604;BME280;41468;48.838;9.330;2023-05-03T10:11:12;99106.91;;;17.47;59.30
55604;BME280;41468;48.838;9.330;2023-05-03T10:13:42;99095.44;;;17.38;56.76
55604;BME280;41468;48.838;9.330;2023-05-03T10:16:12;99102.94;;;17.77;56.64
55604;BME280;41468;48.838;9.330;2023-05-03T10:18:48;99091.00;;;18.26;55.36
55604;BME280;41468;48.838;9.330;2023-05-03T10:21:32;99095.84;;;17.83;54.18
55604;BME280;41468;48.838;9.330;2023-05-03T10:24:13;99093.06;;;17.76;55.13
55604;BME280;41468;48.838;9.330;2023-05-03T10:26:45;99098.22;;;17.31;54.31
55604;BME280;41468;48.838;9.330;2023-05-03T10:31:59;99082.00;;;18.04;54.91
55604;BME280;41468;48.838;9.330;2023-05-03T10:34:31;99088.28;;;18.12;55.11
55604;BME280;41468;48.838;9.330;2023-05-03T10:37:08;99087.06;;;18.24;54.36
55604;BME280;41468;48.838;9.330;2023-05-03T10:39:35;99086.13;;;18.63;55.08
55604;BME280;41468;48.838;9.330;2023-05-03T10:42:04;99082.56;;;18.62;53.52
55604;BME280;41468;48.838;9.330;2023-05-03T10:44:37;99075.09;;;18.52;53.26
55604;BME280;41468;48.838;9.330;2023-05-03T10:47:21;99075.25;;;18.20;53.47
55604;BME280;41468;48.838;9.330;2023-05-03T10:55:09;99080.34;;;18.21;51.44
55604;BME280;41468;48.838;9.330;2023-05-03T10:57:38;99078.53;;;18.81;49.12
55604;BME280;41468;48.838;9.330;2023-05-03T11:00:14;99071.63;;;19.07;49.21
55604;BME280;41468;48.838;9.330;2023-05-03T11:05:38;99065.34;;;19.03;49.77
55604;BME280;41468;48.838;9.330;2023-05-03T11:08:19;99065.81;;;18.91;50.57
55604;BME280;41468;48.838;9.330;2023-05-03T11:10:48;99067.94;;;18.65;52.40
55604;BME280;41468;48.838;9.330;2023-05-03T11:13:15;99059.38;;;19.05;52.75
55604;BME280;41468;48.838;9.330;2023-05-03T11:15:42;99054.75;;;19.39;52.38
55604;BME280;41468;48.838;9.330;2023-05-03T11:18:11;99044.25;;;19.69;51.71
55604;BME280;41468;48.838;9.330;2023-05-03T11:20:37;99050.69;;;19.96;48.78
55604;BME280;41468;48.838;9.330;2023-05-03T11:23:05;99043.13;;;19.59;50.59
55604;BME280;41468;48.838;9.330;2023-05-03T11:25:35;99041.44;;;19.27;51.12
55604;BME280;41468;48.838;9.330;2023-05-03T11:28:02;99047.81;;;19.20;51.21
55604;BME280;41468;48.838;9.330;2023-05-03T11:30:33;99038.56;;;18.89;52.18
55604;BME280;41468;48.838;9.330;2023-05-03T11:33:05;99038.72;;;18.61;50.97
55604;BME280;41468;48.838;9.330;2023-05-03T11:35:43;99035.59;;;18.51;51.38
55604;BME280;41468;48.838;9.330;2023-05-03T11:38:10;99030.25;;;18.89;50.80
55604;BME280;41468;48.838;9.330;2023-05-03T11:40:37;99026.13;;;18.52;49.89
55604;BME280;41468;48.838;9.330;2023-05-03T11:43:05;99034.63;;;18.87;49.93
55604;BME280;41468;48.838;9.330;2023-05-03T11:45:43;99022.63;;;19.08;51.21
55604;BME280;41468;48.838;9.330;2023-05-03T11:48:12;99030.13;;;19.56;51.90
55604;BME280;41468;48.838;9.330;2023-05-03T11:50:46;99023.25;;;19.71;50.53
55604;BME280;41468;48.838;9.330;2023-05-03T11:53:15;99031.53;;;19.26;49.69
55604;BME280;41468;48.838;9.330;2023-05-03T11:55:44;99027.00;;;19.05;48.73
55604;BME280;41468;48.838;9.330;2023-05-03T11:58:19;99022.69;;;19.87;47.93
55604;BME280;41468;48.838;9.330;2023-05-03T12:00:48;99022.22;;;20.26;48.77
55604;BME280;41468;48.838;9.330;2023-05-03T12:03:17;99011.16;;;20.23;47.16
55604;BME280;41468;48.838;9.330;2023-05-03T12:05:46;99007.78;;;20.39;45.19
55604;BME280;41468;48.838;9.330;2023-05-03T12:08:14;99010.28;;;20.29;47.72
55604;BME280;41468;48.838;9.330;2023-05-03T12:10:49;99004.09;;;20.18;45.93
55604;BME280;41468;48.838;9.330;2023-05-03T12:13:27;99007.00;;;19.73;47.26
55604;BME280;41468;48.838;9.330;2023-05-03T12:15:59;99003.59;;;18.54;49.08
55604;BME280;41468;48.838;9.330;2023-05-03T12:18:55;99000.91;;;18.43;48.13
55604;BME280;41468;48.838;9.330;2023-05-03T12:21:42;98999.06;;;18.85;46.64
55604;BME280;41468;48.838;9.330;2023-05-03T12:24:17;98983.94;;;19.83;47.24
55604;BME280;41468;48.838;9.330;2023-05-03T12:26:46;98996.38;;;20.02;46.36
55604;BME280;41468;48.838;9.330;2023-05-03T12:29:14;98990.19;;;19.91;45.18
55604;BME280;41468;48.838;9.330;2023-05-03T12:31:45;98992.03;;;19.63;45.95
55604;BME280;41468;48.838;9.330;2023-05-03T12:34:14;99000.53;;;19.42;45.30
55604;BME280;41468;48.838;9.330;2023-05-03T12:36:58;98994.22;;;19.45;45.76
55604;BME280;41468;48.838;9.330;2023-05-03T12:39:31;98994.72;;;19.74;45.39
55604;BME280;41468;48.838;9.330;2023-05-03T12:41:59;98988.38;;;19.77;45.30
55604;BME280;41468;48.838;9.330;2023-05-03T12:44:29;98987.56;;;19.77;45.11
55604;BME280;41468;48.838;9.330;2023-05-03T12:47:00;98987.84;;;19.86;45.84
55604;BME280;41468;48.838;9.330;2023-05-03T12:49:27;98977.81;;;19.61;45.76
55604;BME280;41468;48.838;9.330;2023-05-03T12:51:54;98983.97;;;18.97;45.75
55604;BME280;41468;48.838;9.330;2023-05-03T12:54:28;98972.00;;;19.49;46.34
55604;BME280;41468;48.838;9.330;2023-05-03T12:56:59;98969.97;;;19.53;44.67
55604;BME280;41468;48.838;9.330;2023-05-03T12:59:38;98974.81;;;19.45;43.34
55604;BME280;41468;48.838;9.330;2023-05-03T13:02:15;98966.66;;;19.72;42.29
55604;BME280;41468;48.838;9.330;2023-05-03T13:05:02;98957.50;;;20.10;41.01
55604;BME280;41468;48.838;9.330;2023-05-03T13:07:40;98969.63;;;19.89;42.14
55604;BME280;41468;48.838;9.330;2023-05-03T13:10:09;98963.22;;;19.16;43.24
55604;BME280;41468;48.838;9.330;2023-05-03T13:12:39;98954.09;;;19.19;44.23
55604;BME280;41468;48.838;9.330;2023-05-03T13:15:06;98954.28;;;19.42;44.98
55604;BME280;41468;48.838;9.330;2023-05-03T13:17:33;98953.00;;;19.09;46.04
55604;BME280;41468;48.838;9.330;2023-05-03T13:20:00;98953.31;;;18.70;46.67
55604;BME280;41468;48.838;9.330;2023-05-03T13:22:27;98947.06;;;19.11;45.81
55604;BME280;41468;48.838;9.330;2023-05-03T13:24:54;98958.63;;;19.02;46.24
55604;BME280;41468;48.838;9.330;2023-05-03T13:27:21;98956.25;;;19.01;43.15